sensor_id;sensor_type;location;lat;lon;timestamp;P1;durP1;ratioP1;P2;durP2;ratioP2
63444;SDS011;49573;47.682;9.170;2023-01-05T00:01:13;2.15;;;1.67;;
63444;SDS011;49573;47.682;9.170;2023-01-05T00:03:59;2.53;;;1.70;;
63444;SDS011;49573;47.682;9.170;2023-01-05T00:06:46;2.67;;;1.80;;
63444;SDS011;49573;47.682;9.170;2023-01-05T00:09:32;3.10;;;1.80;;
63444;SDS011;49573;47.682;9.170;2023-01-05T00:12:18;3.03;;;1.60;;
63444;SDS011;49573;47.682;9.170;2023-01-05T00:15:23;3.03;;;1.75;;
63444;SDS011;49573;47.682;9.170;2023-01-05T00:18:30;2.80;;;1.60;;
63444;SDS011;49573;47.682;9.170;2023-01-05T00:21:35;2.33;;;1.48;;
63444;SDS011;49573;47.682;9.170;2023-01-05T00:24:40;2.13;;;1.42;;
63444;SDS011;49573;47.682;9.170;2023-01-05T00:27:27;3.42;;;2.00;;
63444;SDS011;49573;47.682;9.170;2023-01-05T00:30:14;3.03;;;1.63;;
63444;SDS011;49573;47.682;9.170;2023-01-05T00:33:00;3.40;;;1.65;;
63444;SDS011;49573;47.682;9.170;2023-01-05T00:35:48;2.80;;;1.40;;
63444;SDS011;49573;47.682;9.170;2023-01-05T00:38:35;3.05;;;1.50;;
63444;SDS011;49573;47.682;9.170;2023-01-05T00:41:21;2.78;;;1.63;;
63444;SDS011;49573;47.682;9.170;2023-01-05T00:44:08;1.38;;;1.20;;
63444;SDS011;49573;47.682;9.170;2023-01-05T00:46:54;3.78;;;2.13;;
63444;SDS011;49573;47.682;9.170;2023-01-05T00:49:41;3.15;;;1.77;;
63444;SDS011;49573;47.682;9.170;2023-01-05T00:52:28;2.53;;;1.75;;
63444;SDS011;49573;47.682;9.170;2023-01-05T00:55:15;2.75;;;1.45;;
63444;SDS011;49573;47.682;9.170;2023-01-05T00:58:01;4.22;;;1.60;;
63444;SDS011;49573;47.682;9.170;2023-01-05T01:00:48;3.60;;;1.92;;
63444;SDS011;49573;47.682;9.170;2023-01-05T01:03:34;2.85;;;1.60;;
63444;SDS011;49573;47.682;9.170;2023-01-05T01:06:20;3.38;;;1.60;;
63444;SDS011;49573;47.682;9.170;2023-01-05T01:09:08;2.53;;;1.77;;
63444;SDS011;49573;47.682;9.170;2023-01-05T01:11:55;1.98;;;1.48;;
63444;SDS011;49573;47.682;9.170;2023-01-05T01:14:41;2.25;;;1.75;;
63444;SDS011;49573;47.682;9.170;2023-01-05T01:17:31;3.65;;;1.65;;
63444;SDS011;49573;47.682;9.170;2023-01-05T01:20:17;2.60;;;1.70;;
63444;SDS011;49573;47.682;9.170;2023-01-05T01:23:04;3.25;;;1.75;;
63444;SDS011;49573;47.682;9.170;2023-01-05T01:25:52;1.65;;;1.33;;
63444;SDS011;49573;47.682;9.170;2023-01-05T01:28:39;2.25;;;1.50;;
63444;SDS011;49573;47.682;9.170;2023-01-05T01:31:25;2.28;;;1.60;;
63444;SDS011;49573;47.682;9.170;2023-01-05T01:34:11;2.38;;;1.48;;
63444;SDS011;49573;47.682;9.170;2023-01-05T01:36:58;1.85;;;1.27;;
63444;SDS011;49573;47.682;9.170;2023-01-05T01:39:44;2.35;;;1.40;;
63444;SDS011;49573;47.682;9.170;2023-01-05T01:42:32;2.83;;;1.48;;
63444;SDS011;49573;47.682;9.170;2023-01-05T01:45:19;2.42;;;1.63;;
63444;SDS011;49573;47.682;9.170;2023-01-05T01:48:06;2.05;;;1.48;;
63444;SDS011;49573;47.682;9.170;2023-01-05T01:50:53;2.30;;;1.40;;
63444;SDS011;49573;47.682;9.170;2023-01-05T01:53:41;2.25;;;1.42;;
63444;SDS011;49573;47.682;9.170;2023-01-05T01:56:29;3.28;;;1.55;;
63444;SDS011;49573;47.682;9.170;2023-01-05T01:59:19;2.67;;;1.60;;
63444;SDS011;49573;47.682;9.170;2023-01-05T02:02:06;2.50;;;1.50;;
63444;SDS011;49573;47.682;9.170;2023-01-05T02:04:53;3.13;;;1.60;;
63444;SDS011;49573;47.682;9.170;2023-01-05T02:07:42;3.25;;;1.38;;
63444;SDS011;49573;47.682;9.170;2023-01-05T02:10:35;1.42;;;1.10;;
63444;SDS011;49573;47.682;9.170;2023-01-05T02:13:25;2.47;;;1.58;;
63444;SDS011;49573;47.682;9.170;2023-01-05T02:16:16;2.47;;;1.70;;
63444;SDS011;49573;47.682;9.170;2023-01-05T02:19:11;1.92;;;1.30;;
63444;SDS011;49573;47.682;9.170;2023-01-05T02:22:06;1.75;;;1.48;;
63444;SDS011;49573;47.682;9.170;2023-01-05T02:25:00;2.53;;;1.58;;
63444;SDS011;49573;47.682;9.170;2023-01-05T02:27:52;3.25;;;1.40;;
63444;SDS011;49573;47.682;9.170;2023-01-05T02:33:51;2.20;;;1.40;;
63444;SDS011;49573;47.682;9.170;2023-01-05T02:36:41;2.72;;;1.52;;
63444;SDS011;49573;47.682;9.170;2023-01-05T02:39:32;1.98;;;1.50;;
63444;SDS011;49573;47.682;9.170;2023-01-05T02:42:20;1.55;;;1.30;;
63444;SDS011;49573;47.682;9.170;2023-01-05T02:45:08;2.55;;;1.33;;
63444;SDS011;49573;47.682;9.170;2023-01-05T02:47:55;2.45;;;1.33;;
63444;SDS011;49573;47.682;9.170;2023-01-05T02:50:43;1.98;;;1.42;;
63444;SDS011;49573;47.682;9.170;2023-01-05T02:53:31;1.85;;;1.23;;
63444;SDS011;49573;47.682;9.170;2023-01-05T02:56:19;2.20;;;1.40;;
63444;SDS011;49573;47.682;9.170;2023-01-05T02:59:08;1.23;;;1.10;;
63444;SDS011;49573;47.682;9.170;2023-01-05T03:01:58;2.47;;;1.20;;
63444;SDS011;49573;47.682;9.170;2023-01-05T03:04:46;1.75;;;1.00;;
63444;SDS011;49573;47.682;9.170;2023-01-05T03:07:35;2.25;;;1.45;;
63444;SDS011;49573;47.682;9.170;2023-01-05T03:10:22;2.75;;;1.70;;
63444;SDS011;49573;47.682;9.170;2023-01-05T03:13:28;1.98;;;1.40;;
63444;SDS011;49573;47.682;9.170;2023-01-05T03:16:36;1.15;;;1.05;;
63444;SDS011;49573;47.682;9.170;2023-01-05T03:19:24;1.30;;;1.00;;
63444;SDS011;49573;47.682;9.170;2023-01-05T03:22:29;2.08;;;1.27;;
63444;SDS011;49573;47.682;9.170;2023-01-05T03:25:37;1.73;;;1.13;;
63444;SDS011;49573;47.682;9.170;2023-01-05T03:28:42;1.83;;;1.27;;
63444;SDS011;49573;47.682;9.170;2023-01-05T03:31:50;1.67;;;1.17;;
63444;SDS011;49573;47.682;9.170;2023-01-05T03:38:03;2.58;;;1.45;;
63444;SDS011;49573;47.682;9.170;2023-01-05T03:40:53;2.17;;;1.30;;
63444;SDS011;49573;47.682;9.170;2023-01-05T03:43:41;2.20;;;1.10;;
63444;SDS011;49573;47.682;9.170;2023-01-05T03:49:14;1.85;;;1.25;;
63444;SDS011;49573;47.682;9.170;2023-01-05T03:52:02;2.22;;;1.40;;
63444;SDS011;49573;47.682;9.170;2023-01-05T03:54:48;2.70;;;1.30;;
63444;SDS011;49573;47.682;9.170;2023-01-05T03:57:36;2.63;;;1.55;;
63444;SDS011;49573;47.682;9.170;2023-01-05T04:00:22;2.25;;;1.30;;
63444;SDS011;49573;47.682;9.170;2023-01-05T04:03:09;1.58;;;1.10;;
63444;SDS011;49573;47.682;9.170;2023-01-05T04:05:56;2.15;;;1.55;;
63444;SDS011;49573;47.682;9.170;2023-01-05T04:08:42;1.98;;;1.30;;
63444;SDS011;49573;47.682;9.170;2023-01-05T04:11:29;1.50;;;1.05;;
63444;SDS011;49573;47.682;9.170;2023-01-05T04:14:16;1.45;;;1.20;;
63444;SDS011;49573;47.682;9.170;2023-01-05T04:17:03;1.98;;;1.30;;
63444;SDS011;49573;47.682;9.170;2023-01-05T04:19:49;2.85;;;1.30;;
63444;SDS011;49573;47.682;9.170;2023-01-05T04:22:35;3.00;;;1.40;;
63444;SDS011;49573;47.682;9.170;2023-01-05T04:25:22;2.33;;;1.15;;
63444;SDS011;49573;47.682;9.170;2023-01-05T04:28:08;1.77;;;1.30;;
63444;SDS011;49573;47.682;9.170;2023-01-05T04:30:56;1.45;;;1.02;;
63444;SDS011;49573;47.682;9.170;2023-01-05T04:33:42;2.20;;;0.77;;
63444;SDS011;49573;47.682;9.170;2023-01-05T04:36:29;1.73;;;1.13;;
63444;SDS011;49573;47.682;9.170;2023-01-05T04:39:16;1.25;;;0.95;;
63444;SDS011;49573;47.682;9.170;2023-01-05T04:42:02;0.88;;;0.75;;
63444;SDS011;49573;47.682;9.170;2023-01-05T04:44:49;1.70;;;1.08;;
63444;SDS011;49573;47.682;9.170;2023-01-05T04:47:36;1.40;;;0.88;;
63444;SDS011;49573;47.682;9.170;2023-01-05T04:50:23;1.48;;;0.95;;
63444;SDS011;49573;47.682;9.170;2023-01-05T04:53:09;1.10;;;1.00;;
63444;SDS011;49573;47.682;9.170;2023-01-05T04:55:56;2.42;;;0.93;;
63444;SDS011;49573;47.682;9.170;2023-01-05T04:58:42;1.77;;;1.10;;
63444;SDS011;49573;47.682;9.170;2023-01-05T05:01:29;2.30;;;1.30;;
63444;SDS011;49573;47.682;9.170;2023-01-05T05:04:16;1.48;;;1.00;;
63444;SDS011;49573;47.682;9.170;2023-01-05T05:07:03;2.28;;;0.98;;
63444;SDS011;49573;47.682;9.170;2023-01-05T05:09:49;1.35;;;0.90;;
63444;SDS011;49573;47.682;9.170;2023-01-05T05:12:36;1.25;;;0.95;;
63444;SDS011;49573;47.682;9.170;2023-01-05T05:15:22;1.23;;;0.90;;
63444;SDS011;49573;47.682;9.170;2023-01-05T05:18:08;2.97;;;1.30;;
63444;SDS011;49573;47.682;9.170;2023-01-05T05:20:56;1.00;;;0.80;;
63444;SDS011;49573;47.682;9.170;2023-01-05T05:23:43;1.48;;;1.08;;
63444;SDS011;49573;47.682;9.170;2023-01-05T05:26:29;0.90;;;0.80;;
63444;SDS011;49573;47.682;9.170;2023-01-05T05:29:15;1.25;;;0.90;;
63444;SDS011;49573;47.682;9.170;2023-01-05T05:32:02;1.55;;;1.00;;
63444;SDS011;49573;47.682;9.170;2023-01-05T05:34:48;1.00;;;0.80;;
63444;SDS011;49573;47.682;9.170;2023-01-05T05:37:36;0.80;;;0.50;;
63444;SDS011;49573;47.682;9.170;2023-01-05T05:40:23;2.38;;;1.35;;
63444;SDS011;49573;47.682;9.170;2023-01-05T05:43:10;0.63;;;0.63;;
63444;SDS011;49573;47.682;9.170;2023-01-05T05:45:57;1.05;;;0.68;;
63444;SDS011;49573;47.682;9.170;2023-01-05T05:48:43;0.82;;;0.60;;
63444;SDS011;49573;47.682;9.170;2023-01-05T05:51:29;0.93;;;0.57;;
63444;SDS011;49573;47.682;9.170;2023-01-05T05:54:18;1.10;;;1.00;;
63444;SDS011;49573;47.682;9.170;2023-01-05T05:57:04;1.00;;;0.65;;
63444;SDS011;49573;47.682;9.170;2023-01-05T05:59:51;0.63;;;0.63;;
63444;SDS011;49573;47.682;9.170;2023-01-05T06:02:37;1.10;;;0.90;;
63444;SDS011;49573;47.682;9.170;2023-01-05T06:05:24;0.63;;;0.60;;
63444;SDS011;49573;47.682;9.170;2023-01-05T06:08:10;0.73;;;0.52;;
63444;SDS011;49573;47.682;9.170;2023-01-05T06:10:58;1.02;;;0.80;;
63444;SDS011;49573;47.682;9.170;2023-01-05T06:13:45;1.40;;;0.75;;
63444;SDS011;49573;47.682;9.170;2023-01-05T06:16:33;1.42;;;0.90;;
63444;SDS011;49573;47.682;9.170;2023-01-05T06:19:19;2.45;;;1.05;;
63444;SDS011;49573;47.682;9.170;2023-01-05T06:22:05;0.57;;;0.57;;
63444;SDS011;49573;47.682;9.170;2023-01-05T06:24:52;1.02;;;0.90;;
63444;SDS011;49573;47.682;9.170;2023-01-05T06:27:40;0.65;;;0.60;;
63444;SDS011;49573;47.682;9.170;2023-01-05T06:30:27;1.02;;;0.80;;
63444;SDS011;49573;47.682;9.170;2023-01-05T06:33:13;1.33;;;0.93;;
63444;SDS011;49573;47.682;9.170;2023-01-05T06:36:00;1.13;;;0.80;;
63444;SDS011;49573;47.682;9.170;2023-01-05T06:38:46;1.38;;;0.80;;
63444;SDS011;49573;47.682;9.170;2023-01-05T06:41:32;0.85;;;0.75;;
63444;SDS011;49573;47.682;9.170;2023-01-05T06:44:21;1.63;;;1.10;;
63444;SDS011;49573;47.682;9.170;2023-01-05T06:47:07;1.85;;;0.90;;
63444;SDS011;49573;47.682;9.170;2023-01-05T06:49:53;1.73;;;0.70;;
63444;SDS011;49573;47.682;9.170;2023-01-05T06:52:40;0.90;;;0.73;;
63444;SDS011;49573;47.682;9.170;2023-01-05T06:55:26;1.40;;;0.85;;
63444;SDS011;49573;47.682;9.170;2023-01-05T06:58:13;1.40;;;0.93;;
63444;SDS011;49573;47.682;9.170;2023-01-05T07:01:01;1.70;;;1.05;;
63444;SDS011;49573;47.682;9.170;2023-01-05T07:03:47;1.02;;;0.85;;
63444;SDS011;49573;47.682;9.170;2023-01-05T07:06:33;0.68;;;0.68;;
63444;SDS011;49573;47.682;9.170;2023-01-05T07:09:20;3.38;;;1.40;;
63444;SDS011;49573;47.682;9.170;2023-01-05T07:12:07;1.38;;;1.25;;
63444;SDS011;49573;47.682;9.170;2023-01-05T07:14:53;2.35;;;1.30;;
63444;SDS011;49573;47.682;9.170;2023-01-05T07:17:41;1.42;;;1.08;;
63444;SDS011;49573;47.682;9.170;2023-01-05T07:20:27;1.50;;;0.90;;
63444;SDS011;49573;47.682;9.170;2023-01-05T07:23:14;3.17;;;1.13;;
63444;SDS011;49573;47.682;9.170;2023-01-05T07:26:00;2.10;;;1.38;;
63444;SDS011;49573;47.682;9.170;2023-01-05T07:28:47;2.13;;;1.27;;
63444;SDS011;49573;47.682;9.170;2023-01-05T07:31:33;1.52;;;1.25;;
63444;SDS011;49573;47.682;9.170;2023-01-05T07:34:21;1.75;;;1.08;;
63444;SDS011;49573;47.682;9.170;2023-01-05T07:37:07;2.33;;;1.20;;
63444;SDS011;49573;47.682;9.170;2023-01-05T07:39:55;1.33;;;1.15;;
63444;SDS011;49573;47.682;9.170;2023-01-05T07:42:41;2.17;;;1.17;;
63444;SDS011;49573;47.682;9.170;2023-01-05T07:45:28;1.88;;;1.27;;
63444;SDS011;49573;47.682;9.170;2023-01-05T07:48:14;2.28;;;1.27;;
63444;SDS011;49573;47.682;9.170;2023-01-05T07:51:02;1.70;;;1.23;;
63444;SDS011;49573;47.682;9.170;2023-01-05T07:53:49;2.45;;;1.50;;
63444;SDS011;49573;47.682;9.170;2023-01-05T07:56:35;3.63;;;1.70;;
63444;SDS011;49573;47.682;9.170;2023-01-05T07:59:22;2.30;;;1.30;;
63444;SDS011;49573;47.682;9.170;2023-01-05T08:02:08;2.10;;;1.45;;
63444;SDS011;49573;47.682;9.170;2023-01-05T08:04:55;2.03;;;1.33;;
63444;SDS011;49573;47.682;9.170;2023-01-05T08:07:43;2.30;;;1.50;;
63444;SDS011;49573;47.682;9.170;2023-01-05T08:10:29;1.58;;;1.30;;
63444;SDS011;49573;47.682;9.170;2023-01-05T08:13:15;1.58;;;1.33;;
63444;SDS011;49573;47.682;9.170;2023-01-05T08:16:21;2.40;;;1.58;;
63444;SDS011;49573;47.682;9.170;2023-01-05T08:19:07;1.90;;;1.33;;
63444;SDS011;49573;47.682;9.170;2023-01-05T08:21:54;1.67;;;1.50;;
63444;SDS011;49573;47.682;9.170;2023-01-05T08:24:42;2.05;;;1.38;;
63444;SDS011;49573;47.682;9.170;2023-01-05T08:27:29;1.70;;;1.13;;
63444;SDS011;49573;47.682;9.170;2023-01-05T08:30:15;2.67;;;1.13;;
63444;SDS011;49573;47.682;9.170;2023-01-05T08:33:02;2.13;;;0.90;;
63444;SDS011;49573;47.682;9.170;2023-01-05T08:35:49;2.08;;;1.17;;
63444;SDS011;49573;47.682;9.170;2023-01-05T08:38:35;1.77;;;1.15;;
63444;SDS011;49573;47.682;9.170;2023-01-05T08:41:24;1.05;;;0.95;;
63444;SDS011;49573;47.682;9.170;2023-01-05T08:44:12;1.42;;;1.00;;
63444;SDS011;49573;47.682;9.170;2023-01-05T08:46:59;1.73;;;1.17;;
63444;SDS011;49573;47.682;9.170;2023-01-05T08:49:45;1.65;;;1.23;;
63444;SDS011;49573;47.682;9.170;2023-01-05T08:52:32;3.35;;;1.40;;
63444;SDS011;49573;47.682;9.170;2023-01-05T08:55:18;0.93;;;0.90;;
63444;SDS011;49573;47.682;9.170;2023-01-05T08:58:06;2.17;;;1.38;;
63444;SDS011;49573;47.682;9.170;2023-01-05T09:00:52;3.78;;;2.28;;
63444;SDS011;49573;47.682;9.170;2023-01-05T09:03:39;2.00;;;1.27;;
63444;SDS011;49573;47.682;9.170;2023-01-05T09:06:25;1.80;;;1.20;;
63444;SDS011;49573;47.682;9.170;2023-01-05T09:09:12;2.08;;;1.15;;
63444;SDS011;49573;47.682;9.170;2023-01-05T09:11:58;1.05;;;0.85;;
63444;SDS011;49573;47.682;9.170;2023-01-05T09:14:46;1.08;;;0.63;;
63444;SDS011;49573;47.682;9.170;2023-01-05T09:17:33;2.00;;;1.38;;
63444;SDS011;49573;47.682;9.170;2023-01-05T09:20:20;0.80;;;0.70;;
63444;SDS011;49573;47.682;9.170;2023-01-05T09:23:06;1.10;;;1.00;;
63444;SDS011;49573;47.682;9.170;2023-01-05T09:25:53;1.45;;;1.05;;
63444;SDS011;49573;47.682;9.170;2023-01-05T09:28:39;2.28;;;1.20;;
63444;SDS011;49573;47.682;9.170;2023-01-05T09:31:28;3.95;;;1.23;;
63444;SDS011;49573;47.682;9.170;2023-01-05T09:34:14;1.50;;;0.88;;
63444;SDS011;49573;47.682;9.170;2023-01-05T09:37:03;1.50;;;0.73;;
63444;SDS011;49573;47.682;9.170;2023-01-05T09:39:49;2.05;;;0.60;;
63444;SDS011;49573;47.682;9.170;2023-01-05T09:42:36;1.92;;;1.10;;
63444;SDS011;49573;47.682;9.170;2023-01-05T09:45:26;1.13;;;0.93;;
63444;SDS011;49573;47.682;9.170;2023-01-05T09:48:14;1.45;;;0.82;;
63444;SDS011;49573;47.682;9.170;2023-01-05T09:51:00;0.70;;;0.70;;
63444;SDS011;49573;47.682;9.170;2023-01-05T09:53:47;1.95;;;0.85;;
63444;SDS011;49573;47.682;9.170;2023-01-05T09:56:35;1.58;;;1.10;;
63444;SDS011;49573;47.682;9.170;2023-01-05T09:59:23;1.50;;;0.98;;
63444;SDS011;49573;47.682;9.170;2023-01-05T10:02:13;1.50;;;0.88;;
63444;SDS011;49573;47.682;9.170;2023-01-05T10:05:02;2.88;;;1.52;;
63444;SDS011;49573;47.682;9.170;2023-01-05T10:07:50;0.90;;;0.68;;
63444;SDS011;49573;47.682;9.170;2023-01-05T10:10:41;0.93;;;0.77;;
63444;SDS011;49573;47.682;9.170;2023-01-05T10:13:29;1.23;;;1.00;;
63444;SDS011;49573;47.682;9.170;2023-01-05T10:16:16;0.85;;;0.60;;
63444;SDS011;49573;47.682;9.170;2023-01-05T10:19:02;1.25;;;0.90;;
63444;SDS011;49573;47.682;9.170;2023-01-05T10:21:54;1.05;;;0.60;;
63444;SDS011;49573;47.682;9.170;2023-01-05T10:24:44;1.00;;;0.52;;
63444;SDS011;49573;47.682;9.170;2023-01-05T10:27:34;1.23;;;0.70;;
63444;SDS011;49573;47.682;9.170;2023-01-05T10:30:23;0.80;;;0.60;;
63444;SDS011;49573;47.682;9.170;2023-01-05T10:33:12;0.82;;;0.70;;
63444;SDS011;49573;47.682;9.170;2023-01-05T10:36:00;1.25;;;0.82;;
63444;SDS011;49573;47.682;9.170;2023-01-05T10:38:53;0.68;;;0.60;;
63444;SDS011;49573;47.682;9.170;2023-01-05T10:41:42;1.05;;;0.65;;
63444;SDS011;49573;47.682;9.170;2023-01-05T10:44:40;1.27;;;0.93;;
63444;SDS011;49573;47.682;9.170;2023-01-05T10:50:19;1.08;;;0.75;;
63444;SDS011;49573;47.682;9.170;2023-01-05T10:53:10;1.17;;;0.80;;
63444;SDS011;49573;47.682;9.170;2023-01-05T10:55:59;1.33;;;0.93;;
63444;SDS011;49573;47.682;9.170;2023-01-05T10:58:48;0.70;;;0.50;;
63444;SDS011;49573;47.682;9.170;2023-01-05T11:01:50;0.90;;;0.88;;
63444;SDS011;49573;47.682;9.170;2023-01-05T11:04:37;1.30;;;0.98;;
63444;SDS011;49573;47.682;9.170;2023-01-05T11:07:23;0.75;;;0.63;;
63444;SDS011;49573;47.682;9.170;2023-01-05T11:10:16;1.33;;;0.95;;
63444;SDS011;49573;47.682;9.170;2023-01-05T11:13:05;2.53;;;0.65;;
63444;SDS011;49573;47.682;9.170;2023-01-05T11:15:52;0.90;;;0.70;;
63444;SDS011;49573;47.682;9.170;2023-01-05T11:18:41;1.13;;;0.77;;
63444;SDS011;49573;47.682;9.170;2023-01-05T11:21:38;0.70;;;0.60;;
63444;SDS011;49573;47.682;9.170;2023-01-05T11:24:28;1.05;;;0.50;;
63444;SDS011;49573;47.682;9.170;2023-01-05T11:27:22;0.90;;;0.65;;
63444;SDS011;49573;47.682;9.170;2023-01-05T11:33:16;0.80;;;0.63;;
63444;SDS011;49573;47.682;9.170;2023-01-05T11:36:07;0.98;;;0.65;;
63444;SDS011;49573;47.682;9.170;2023-01-05T11:38:58;1.65;;;0.80;;
63444;SDS011;49573;47.682;9.170;2023-01-05T11:41:44;1.23;;;0.70;;
63444;SDS011;49573;47.682;9.170;2023-01-05T11:44:30;1.15;;;0.88;;
63444;SDS011;49573;47.682;9.170;2023-01-05T11:47:19;0.82;;;0.70;;
63444;SDS011;49573;47.682;9.170;2023-01-05T11:50:13;0.90;;;0.75;;
63444;SDS011;49573;47.682;9.170;2023-01-05T11:53:00;1.02;;;0.77;;
63444;SDS011;49573;47.682;9.170;2023-01-05T11:55:47;1.90;;;0.80;;
63444;SDS011;49573;47.682;9.170;2023-01-05T11:58:43;1.23;;;0.75;;
63444;SDS011;49573;47.682;9.170;2023-01-05T12:07:30;2.30;;;0.93;;
63444;SDS011;49573;47.682;9.170;2023-01-05T12:10:31;2.22;;;0.80;;
63444;SDS011;49573;47.682;9.170;2023-01-05T12:13:22;2.40;;;0.82;;
63444;SDS011;49573;47.682;9.170;2023-01-05T12:16:18;1.67;;;0.98;;
63444;SDS011;49573;47.682;9.170;2023-01-05T12:22:24;0.52;;;0.50;;
63444;SDS011;49573;47.682;9.170;2023-01-05T12:25:17;2.28;;;0.77;;
63444;SDS011;49573;47.682;9.170;2023-01-05T12:28:14;1.42;;;0.80;;
63444;SDS011;49573;47.682;9.170;2023-01-05T12:31:07;3.38;;;1.10;;
63444;SDS011;49573;47.682;9.170;2023-01-05T12:34:02;1.80;;;0.98;;
63444;SDS011;49573;47.682;9.170;2023-01-05T12:36:56;2.33;;;0.82;;
63444;SDS011;49573;47.682;9.170;2023-01-05T12:40:02;1.92;;;0.90;;
63444;SDS011;49573;47.682;9.170;2023-01-05T12:42:58;2.15;;;1.42;;
63444;SDS011;49573;47.682;9.170;2023-01-05T12:48:51;1.70;;;0.80;;
63444;SDS011;49573;47.682;9.170;2023-01-05T12:51:41;1.92;;;0.80;;
63444;SDS011;49573;47.682;9.170;2023-01-05T12:54:34;1.08;;;0.63;;
63444;SDS011;49573;47.682;9.170;2023-01-05T12:57:24;1.42;;;0.70;;
63444;SDS011;49573;47.682;9.170;2023-01-05T13:00:13;2.80;;;0.90;;
63444;SDS011;49573;47.682;9.170;2023-01-05T13:03:01;2.50;;;0.88;;
63444;SDS011;49573;47.682;9.170;2023-01-05T13:05:50;2.10;;;1.00;;
63444;SDS011;49573;47.682;9.170;2023-01-05T13:08:39;1.58;;;0.88;;
63444;SDS011;49573;47.682;9.170;2023-01-05T13:11:28;2.47;;;0.70;;
63444;SDS011;49573;47.682;9.170;2023-01-05T13:14:17;0.80;;;0.63;;
63444;SDS011;49573;47.682;9.170;2023-01-05T13:17:09;1.45;;;0.60;;
63444;SDS011;49573;47.682;9.170;2023-01-05T13:19:59;0.70;;;0.70;;
63444;SDS011;49573;47.682;9.170;2023-01-05T13:22:48;0.65;;;0.60;;
63444;SDS011;49573;47.682;9.170;2023-01-05T13:25:38;0.75;;;0.65;;
63444;SDS011;49573;47.682;9.170;2023-01-05T13:28:27;1.27;;;0.85;;
63444;SDS011;49573;47.682;9.170;2023-01-05T13:31:30;0.77;;;0.77;;
63444;SDS011;49573;47.682;9.170;2023-01-05T13:34:39;0.75;;;0.75;;
63444;SDS011;49573;47.682;9.170;2023-01-05T13:37:45;0.60;;;0.60;;
63444;SDS011;49573;47.682;9.170;2023-01-05T13:40:40;1.50;;;0.60;;
63444;SDS011;49573;47.682;9.170;2023-01-05T13:43:36;0.88;;;0.77;;
63444;SDS011;49573;47.682;9.170;2023-01-05T13:46:37;0.73;;;0.45;;
63444;SDS011;49573;47.682;9.170;2023-01-05T13:49:32;0.82;;;0.65;;
63444;SDS011;49573;47.682;9.170;2023-01-05T13:52:24;0.85;;;0.52;;
63444;SDS011;49573;47.682;9.170;2023-01-05T13:55:16;0.90;;;0.68;;
63444;SDS011;49573;47.682;9.170;2023-01-05T13:58:04;0.93;;;0.70;;
63444;SDS011;49573;47.682;9.170;2023-01-05T14:03:37;0.85;;;0.68;;
63444;SDS011;49573;47.682;9.170;2023-01-05T14:09:13;0.93;;;0.60;;
63444;SDS011;49573;47.682;9.170;2023-01-05T14:18:08;1.65;;;0.93;;
63444;SDS011;49573;47.682;9.170;2023-01-05T14:23:56;0.82;;;0.77;;
63444;SDS011;49573;47.682;9.170;2023-01-05T14:26:58;0.95;;;0.60;;
63444;SDS011;49573;47.682;9.170;2023-01-05T14:32:55;0.43;;;0.40;;
63444;SDS011;49573;47.682;9.170;2023-01-05T14:35:48;1.65;;;0.60;;
63444;SDS011;49573;47.682;9.170;2023-01-05T14:38:35;0.98;;;0.70;;
63444;SDS011;49573;47.682;9.170;2023-01-05T14:41:22;0.80;;;0.57;;
63444;SDS011;49573;47.682;9.170;2023-01-05T14:44:15;1.58;;;1.15;;
63444;SDS011;49573;47.682;9.170;2023-01-05T14:47:02;1.27;;;0.85;;
63444;SDS011;49573;47.682;9.170;2023-01-05T14:49:53;2.20;;;0.65;;
63444;SDS011;49573;47.682;9.170;2023-01-05T14:52:51;0.60;;;0.60;;
63444;SDS011;49573;47.682;9.170;2023-01-05T14:55:38;1.13;;;0.80;;
63444;SDS011;49573;47.682;9.170;2023-01-05T15:01:36;0.85;;;0.70;;
63444;SDS011;49573;47.682;9.170;2023-01-05T15:04:25;1.50;;;0.93;;
63444;SDS011;49573;47.682;9.170;2023-01-05T15:07:16;1.17;;;0.70;;
63444;SDS011;49573;47.682;9.170;2023-01-05T15:10:10;1.63;;;1.10;;
63444;SDS011;49573;47.682;9.170;2023-01-05T15:16:06;1.70;;;1.10;;
63444;SDS011;49573;47.682;9.170;2023-01-05T15:22:05;1.38;;;0.93;;
63444;SDS011;49573;47.682;9.170;2023-01-05T15:28:02;3.53;;;1.90;;
63444;SDS011;49573;47.682;9.170;2023-01-05T15:30:56;1.63;;;1.30;;
63444;SDS011;49573;47.682;9.170;2023-01-05T15:33:53;3.47;;;2.65;;
63444;SDS011;49573;47.682;9.170;2023-01-05T15:36:42;6.45;;;4.00;;
63444;SDS011;49573;47.682;9.170;2023-01-05T15:39:36;2.33;;;1.85;;
63444;SDS011;49573;47.682;9.170;2023-01-05T15:42:33;2.83;;;1.95;;
63444;SDS011;49573;47.682;9.170;2023-01-05T15:45:22;2.17;;;1.90;;
63444;SDS011;49573;47.682;9.170;2023-01-05T15:48:10;1.42;;;0.98;;
63444;SDS011;49573;47.682;9.170;2023-01-05T15:50:58;1.42;;;1.15;;
63444;SDS011;49573;47.682;9.170;2023-01-05T15:53:51;2.55;;;1.50;;
63444;SDS011;49573;47.682;9.170;2023-01-05T15:56:39;2.17;;;1.33;;
63444;SDS011;49573;47.682;9.170;2023-01-05T15:59:27;2.10;;;1.45;;
63444;SDS011;49573;47.682;9.170;2023-01-05T16:02:17;2.60;;;1.80;;
63444;SDS011;49573;47.682;9.170;2023-01-05T16:05:11;4.40;;;1.75;;
63444;SDS011;49573;47.682;9.170;2023-01-05T16:07:58;2.78;;;2.00;;
63444;SDS011;49573;47.682;9.170;2023-01-05T16:10:46;1.77;;;1.38;;
63444;SDS011;49573;47.682;9.170;2023-01-05T16:13:36;2.65;;;1.48;;
63444;SDS011;49573;47.682;9.170;2023-01-05T16:16:25;1.42;;;1.20;;
63444;SDS011;49573;47.682;9.170;2023-01-05T16:19:16;2.42;;;1.50;;
63444;SDS011;49573;47.682;9.170;2023-01-05T16:22:04;3.40;;;2.33;;
63444;SDS011;49573;47.682;9.170;2023-01-05T16:24:53;3.67;;;2.50;;
63444;SDS011;49573;47.682;9.170;2023-01-05T16:27:42;6.22;;;3.20;;
63444;SDS011;49573;47.682;9.170;2023-01-05T16:30:32;7.93;;;3.85;;
63444;SDS011;49573;47.682;9.170;2023-01-05T16:33:21;13.63;;;6.43;;
63444;SDS011;49573;47.682;9.170;2023-01-05T16:36:10;7.53;;;3.78;;
63444;SDS011;49573;47.682;9.170;2023-01-05T16:39:13;9.95;;;5.07;;
63444;SDS011;49573;47.682;9.170;2023-01-05T16:45:16;4.70;;;2.85;;
63444;SDS011;49573;47.682;9.170;2023-01-05T16:48:06;4.03;;;2.38;;
63444;SDS011;49573;47.682;9.170;2023-01-05T16:51:13;2.75;;;1.60;;
63444;SDS011;49573;47.682;9.170;2023-01-05T16:54:03;2.40;;;1.77;;
63444;SDS011;49573;47.682;9.170;2023-01-05T16:56:52;2.38;;;1.55;;
63444;SDS011;49573;47.682;9.170;2023-01-05T16:59:41;3.67;;;1.95;;
63444;SDS011;49573;47.682;9.170;2023-01-05T17:05:35;2.60;;;1.60;;
63444;SDS011;49573;47.682;9.170;2023-01-05T17:08:22;4.15;;;2.10;;
63444;SDS011;49573;47.682;9.170;2023-01-05T17:11:09;3.65;;;2.28;;
63444;SDS011;49573;47.682;9.170;2023-01-05T17:13:56;3.05;;;1.90;;
63444;SDS011;49573;47.682;9.170;2023-01-05T17:16:43;4.40;;;2.50;;
63444;SDS011;49573;47.682;9.170;2023-01-05T17:19:29;4.95;;;2.90;;
63444;SDS011;49573;47.682;9.170;2023-01-05T17:22:19;4.05;;;2.95;;
63444;SDS011;49573;47.682;9.170;2023-01-05T17:25:09;5.60;;;3.15;;
63444;SDS011;49573;47.682;9.170;2023-01-05T17:27:56;4.70;;;3.08;;
63444;SDS011;49573;47.682;9.170;2023-01-05T17:30:43;5.40;;;3.38;;
63444;SDS011;49573;47.682;9.170;2023-01-05T17:33:30;5.25;;;3.15;;
63444;SDS011;49573;47.682;9.170;2023-01-05T17:36:16;8.20;;;4.10;;
63444;SDS011;49573;47.682;9.170;2023-01-05T17:39:04;17.30;;;8.40;;
63444;SDS011;49573;47.682;9.170;2023-01-05T17:41:51;18.40;;;9.02;;
63444;SDS011;49573;47.682;9.170;2023-01-05T17:44:37;11.38;;;6.43;;
63444;SDS011;49573;47.682;9.170;2023-01-05T17:47:24;14.75;;;7.10;;
63444;SDS011;49573;47.682;9.170;2023-01-05T17:50:11;17.92;;;10.05;;
63444;SDS011;49573;47.682;9.170;2023-01-05T17:52:59;14.95;;;7.18;;
63444;SDS011;49573;47.682;9.170;2023-01-05T17:55:47;9.10;;;5.25;;
63444;SDS011;49573;47.682;9.170;2023-01-05T17:58:33;9.55;;;5.38;;
63444;SDS011;49573;47.682;9.170;2023-01-05T18:01:20;10.60;;;7.18;;
63444;SDS011;49573;47.682;9.170;2023-01-05T18:04:06;10.35;;;7.13;;